createdAt,value
2018-06-27T00:00:02.184Z,15.40
2018-06-27T00:01:02.664Z,16.30
2018-06-27T00:02:02.943Z,17.70
2018-06-27T00:03:02.627Z,16.90
2018-06-27T00:04:02.096Z,17.50
2018-06-27T00:05:02.719Z,17.00
2018-06-27T00:06:02.037Z,16.90
2018-06-27T00:07:02.572Z,16.60
2018-06-27T00:08:02.118Z,15.30
2018-06-27T00:09:02.679Z,16.80
2018-06-27T00:10:02.319Z,18.10
2018-06-27T00:11:26.396Z,22.20
2018-06-27T00:12:26.723Z,20.60
2018-06-27T00:13:26.317Z,22.60
2018-06-27T00:14:26.814Z,20.50
2018-06-27T00:15:26.498Z,18.50
2018-06-27T00:16:27.075Z,18.10
2018-06-27T00:17:26.615Z,17.40
2018-06-27T00:18:27.208Z,16.00
2018-06-27T00:19:26.757Z,16.10
2018-06-27T00:20:26.275Z,17.00
2018-06-27T00:21:26.963Z,17.70
2018-06-27T00:22:26.246Z,17.60
2018-06-27T00:23:26.443Z,15.90
2018-06-27T00:24:27.059Z,15.90
2018-06-27T00:25:26.639Z,15.60
2018-06-27T00:26:27.185Z,13.80
2018-06-27T00:27:26.862Z,11.50
2018-06-27T00:28:26.223Z,11.10
2018-06-27T00:29:26.963Z,10.00
2018-06-27T00:30:26.906Z,11.00
2018-06-27T00:31:26.395Z,11.60
2018-06-27T00:32:26.907Z,11.00
2018-06-27T00:33:26.289Z,11.90
2018-06-27T00:34:27.058Z,12.50
2018-06-27T00:35:26.536Z,13.20
2018-06-27T00:36:26.843Z,13.10
2018-06-27T00:37:26.604Z,14.20
2018-06-27T00:38:26.965Z,15.10
2018-06-27T00:39:26.432Z,13.40
2018-06-27T00:40:26.876Z,15.50
2018-06-27T00:41:26.448Z,21.70
2018-06-27T00:42:26.713Z,23.40
2018-06-27T00:43:26.385Z,24.20
2018-06-27T00:44:26.996Z,24.60
2018-06-27T00:45:26.469Z,25.10
2018-06-27T00:46:26.886Z,27.30
2018-06-27T00:47:26.311Z,30.60
2018-06-27T00:48:26.612Z,31.40
2018-06-27T00:49:50.690Z,28.00
2018-06-27T00:50:51.543Z,28.60
2018-06-27T00:51:51.005Z,28.80
2018-06-27T00:52:51.300Z,28.10
2018-06-27T00:53:50.789Z,30.60
2018-06-27T00:54:51.218Z,31.60
2018-06-27T00:55:50.896Z,29.80
2018-06-27T00:56:51.485Z,33.10
2018-06-27T00:57:51.050Z,31.60
2018-06-27T00:59:14.415Z,30.80
2018-06-27T01:00:15.005Z,31.50
2018-06-27T01:01:14.653Z,30.20
2018-06-27T01:02:14.436Z,32.60
2018-06-27T01:03:14.136Z,32.50
2018-06-27T01:04:14.601Z,31.80
2018-06-27T01:05:14.173Z,33.70
2018-06-27T01:06:14.633Z,32.40
2018-06-27T01:07:35.221Z,35.00
2018-06-27T01:08:35.935Z,34.40
2018-06-27T01:09:35.443Z,33.10
2018-06-27T01:10:36.047Z,33.10
2018-06-27T01:11:35.797Z,34.80
2018-06-27T01:12:36.038Z,39.10
2018-06-27T01:13:35.405Z,35.90
2018-06-27T01:14:35.953Z,35.20
2018-06-27T01:15:36.139Z,34.80
2018-06-27T01:16:58.831Z,34.20
2018-06-27T01:17:59.203Z,35.60
2018-06-27T01:18:59.927Z,38.60
2018-06-27T01:19:59.461Z,36.80
2018-06-27T01:20:58.869Z,38.10
2018-06-27T01:21:59.231Z,37.10
2018-06-27T01:22:59.821Z,37.10
2018-06-27T01:24:20.474Z,37.50
2018-06-27T01:25:20.716Z,37.60
2018-06-27T01:26:20.991Z,35.00
2018-06-27T01:27:21.440Z,36.60
2018-06-27T01:28:21.047Z,35.60
2018-06-27T01:29:21.419Z,35.50
2018-06-27T01:30:20.777Z,34.60
2018-06-27T01:31:42.247Z,34.60
2018-06-27T01:32:43.104Z,36.70
2018-06-27T01:33:42.661Z,35.60
2018-06-27T01:34:42.873Z,36.70
2018-06-27T01:35:42.445Z,37.10
2018-06-27T01:36:42.993Z,36.70
2018-06-27T01:37:42.552Z,35.80
2018-06-27T01:39:04.105Z,35.60
2018-06-27T01:40:04.618Z,35.30
2018-06-27T01:41:04.263Z,35.90
2018-06-27T01:42:04.514Z,35.70
2018-06-27T01:43:04.815Z,35.80
2018-06-27T01:44:04.480Z,36.70
2018-06-27T01:45:28.186Z,37.80
2018-06-27T01:46:28.674Z,35.50
2018-06-27T01:47:29.066Z,38.30
2018-06-27T01:48:28.478Z,36.90
2018-06-27T01:49:28.923Z,37.80
2018-06-27T01:50:28.504Z,37.10
2018-06-27T01:51:29.779Z,37.00
2018-06-27T01:52:29.156Z,35.80
2018-06-27T01:53:28.468Z,35.10
2018-06-27T01:54:50.219Z,38.20
2018-06-27T01:55:53.306Z,39.30
2018-06-27T01:56:55.504Z,37.20
2018-06-27T01:57:50.996Z,38.80
2018-06-27T01:58:50.532Z,40.60
2018-06-27T01:59:51.010Z,40.50
2018-06-27T02:00:50.466Z,41.60
2018-06-27T02:02:14.074Z,39.50
2018-06-27T02:03:14.814Z,40.80
2018-06-27T02:04:14.559Z,40.00
2018-06-27T02:05:13.987Z,39.90
2018-06-27T02:06:14.599Z,39.50
2018-06-27T02:07:14.171Z,39.60
2018-06-27T02:08:14.571Z,38.30
2018-06-27T02:09:13.948Z,38.40
2018-06-27T02:10:14.378Z,38.70
2018-06-27T02:11:14.719Z,39.00
2018-06-27T02:12:14.437Z,37.80
2018-06-27T02:13:37.167Z,37.80
2018-06-27T02:14:37.539Z,36.20
2018-06-27T02:15:37.195Z,37.60
2018-06-27T02:16:37.779Z,37.50
2018-06-27T02:17:37.007Z,36.40
2018-06-27T02:19:00.685Z,36.90
2018-06-27T02:20:01.140Z,36.90
2018-06-27T02:21:01.829Z,38.30
2018-06-27T02:22:01.222Z,38.50
2018-06-27T02:23:01.485Z,39.00
2018-06-27T02:24:00.887Z,40.50
2018-06-27T02:25:01.320Z,40.70
2018-06-27T02:26:01.618Z,39.80
2018-06-27T02:27:01.686Z,40.40
2018-06-27T02:28:01.046Z,42.40
2018-06-27T02:29:01.460Z,38.90
2018-06-27T02:30:00.713Z,39.90
2018-06-27T02:31:22.716Z,38.80
2018-06-27T02:32:23.383Z,39.10
2018-06-27T02:33:23.243Z,38.20
2018-06-27T02:34:22.815Z,37.60
2018-06-27T02:35:23.497Z,37.00
2018-06-27T02:36:23.044Z,38.40
2018-06-27T02:37:23.457Z,38.10
2018-06-27T02:38:22.907Z,35.90
2018-06-27T02:39:23.340Z,37.30
2018-06-27T02:40:22.833Z,38.90
2018-06-27T02:41:23.451Z,41.30
2018-06-27T02:42:23.013Z,40.80
2018-06-27T02:43:44.910Z,40.70
2018-06-27T02:44:45.370Z,38.40
2018-06-27T02:45:44.769Z,38.30
2018-06-27T02:46:45.542Z,36.60
2018-06-27T02:47:45.209Z,34.80
2018-06-27T02:48:45.409Z,33.20
2018-06-27T02:49:45.074Z,29.20
2018-06-27T02:50:45.696Z,28.80
2018-06-27T02:51:45.030Z,28.90
2018-06-27T02:52:45.725Z,28.50
2018-06-27T02:53:45.255Z,31.90
2018-06-27T02:54:45.658Z,32.40
2018-06-27T02:55:45.270Z,32.90
2018-06-27T02:56:44.950Z,31.00
2018-06-27T02:57:45.563Z,29.20
2018-06-27T02:58:44.906Z,28.50
2018-06-27T02:59:45.284Z,30.20
2018-06-27T03:00:44.883Z,30.50
2018-06-27T03:01:45.376Z,31.20
2018-06-27T03:03:06.386Z,42.90
2018-06-27T03:04:07.788Z,59.80
2018-06-27T03:05:07.132Z,52.90
2018-06-27T03:06:06.663Z,56.80
2018-06-27T03:07:07.035Z,60.40
2018-06-27T03:08:06.351Z,76.70
2018-06-27T03:09:06.832Z,54.50
2018-06-27T03:10:06.439Z,38.40
2018-06-27T03:11:06.988Z,28.50
2018-06-27T03:12:28.010Z,27.50
2018-06-27T03:13:28.713Z,25.50
2018-06-27T03:14:28.472Z,24.80
2018-06-27T03:15:28.113Z,24.40
2018-06-27T03:16:28.500Z,23.60
2018-06-27T03:17:28.097Z,22.90
2018-06-27T03:18:28.637Z,23.00
2018-06-27T03:19:27.968Z,21.90
2018-06-27T03:20:28.350Z,23.50
2018-06-27T03:21:27.820Z,22.60
2018-06-27T03:22:28.601Z,23.00
2018-06-27T03:23:28.263Z,24.70
2018-06-27T03:24:49.317Z,27.80
2018-06-27T03:26:11.372Z,24.90
2018-06-27T03:27:12.016Z,24.50
2018-06-27T03:28:32.942Z,30.40
2018-06-27T03:30:17.993Z,30.30
2018-06-27T03:31:18.520Z,31.10
2018-06-27T03:32:18.305Z,32.10
2018-06-27T03:33:40.605Z,34.90
2018-06-27T03:34:41.126Z,33.20
2018-06-27T03:35:40.614Z,29.40
2018-06-27T03:36:41.179Z,28.60
2018-06-27T03:37:40.693Z,27.90
2018-06-27T03:38:41.535Z,28.50
2018-06-27T03:39:40.867Z,28.70
2018-06-27T03:40:40.404Z,30.00
2018-06-27T03:41:41.143Z,30.80
2018-06-27T03:42:40.776Z,30.90
2018-06-27T03:43:41.350Z,31.50
2018-06-27T03:45:03.821Z,28.70
2018-06-27T03:46:04.292Z,28.30
2018-06-27T03:47:04.780Z,28.80
2018-06-27T03:48:04.370Z,28.20
2018-06-27T03:49:04.116Z,28.40
2018-06-27T03:50:04.974Z,28.70
2018-06-27T03:51:04.380Z,27.60
2018-06-27T03:52:28.272Z,27.80
2018-06-27T03:53:28.743Z,26.70
2018-06-27T03:54:28.373Z,26.60
2018-06-27T03:55:28.847Z,27.60
2018-06-27T03:56:51.824Z,25.70
2018-06-27T03:57:52.274Z,24.70
2018-06-27T03:58:52.929Z,28.50
2018-06-27T03:59:52.412Z,26.50
2018-06-27T04:00:52.998Z,24.10
2018-06-27T04:01:52.564Z,23.60
2018-06-27T04:02:52.113Z,24.00
2018-06-27T04:03:52.923Z,29.50
2018-06-27T04:04:52.565Z,34.60
2018-06-27T04:05:52.221Z,33.30
2018-06-27T04:06:52.887Z,34.60
2018-06-27T04:07:52.574Z,37.50
2018-06-27T04:09:15.747Z,39.00
2018-06-27T04:10:16.480Z,39.40
2018-06-27T04:11:16.028Z,41.60
2018-06-27T04:12:36.771Z,41.70
2018-06-27T04:14:00.609Z,40.40
2018-06-27T04:15:01.248Z,39.10
2018-06-27T04:16:22.790Z,38.40
2018-06-27T04:17:23.519Z,39.40
2018-06-27T04:18:23.136Z,37.70
2018-06-27T04:19:23.687Z,38.50
2018-06-27T04:20:23.169Z,37.50
2018-06-27T04:21:22.642Z,37.10
2018-06-27T04:22:46.544Z,37.90
2018-06-27T04:23:46.976Z,35.90
2018-06-27T04:24:47.410Z,35.60
2018-06-27T04:25:47.311Z,35.90
2018-06-27T04:26:46.864Z,35.30
2018-06-27T04:27:47.460Z,35.30
2018-06-27T04:28:47.492Z,35.00
2018-06-27T04:29:46.956Z,33.10
2018-06-27T04:30:46.644Z,34.20
2018-06-27T04:31:47.364Z,33.00
2018-06-27T04:33:31.355Z,33.00
2018-06-27T04:34:29.945Z,34.20
2018-06-27T04:35:30.923Z,33.40
2018-06-27T04:36:30.542Z,32.70
2018-06-27T04:37:30.106Z,32.00
2018-06-27T04:38:30.520Z,33.30
2018-06-27T04:39:30.345Z,33.30
2018-06-27T04:40:51.635Z,33.40
2018-06-27T04:41:52.456Z,34.50
2018-06-27T04:43:13.626Z,33.40
2018-06-27T04:44:14.396Z,35.10
2018-06-27T04:45:14.116Z,34.80
2018-06-27T04:46:13.617Z,33.80
2018-06-27T04:47:14.412Z,34.30
2018-06-27T04:48:14.204Z,35.30
2018-06-27T04:49:13.636Z,33.40
2018-06-27T04:50:14.403Z,32.30
2018-06-27T04:51:14.268Z,33.60
2018-06-27T04:52:13.906Z,33.40
2018-06-27T04:53:13.820Z,35.50
2018-06-27T04:54:14.634Z,33.60
2018-06-27T04:55:14.379Z,32.00
2018-06-27T04:56:14.188Z,34.10
2018-06-27T04:57:13.674Z,32.70
2018-06-27T04:58:14.173Z,33.00
2018-06-27T04:59:37.320Z,31.70
2018-06-27T05:00:37.759Z,31.30
2018-06-27T05:01:37.395Z,31.40
2018-06-27T05:03:24.744Z,31.70
2018-06-27T05:04:48.871Z,32.50
2018-06-27T05:05:49.302Z,32.00
2018-06-27T05:07:36.136Z,30.60
2018-06-27T05:08:57.441Z,32.60
2018-06-27T05:09:58.227Z,32.30
2018-06-27T05:10:57.652Z,33.50
2018-06-27T05:11:57.527Z,32.40
2018-06-27T05:12:58.216Z,32.70
2018-06-27T05:14:21.311Z,32.80
2018-06-27T05:15:21.985Z,31.40
2018-06-27T05:16:21.880Z,33.00
2018-06-27T05:17:21.518Z,30.00
2018-06-27T05:18:22.184Z,29.00
2018-06-27T05:19:21.796Z,28.40
2018-06-27T05:20:21.428Z,29.60
2018-06-27T05:21:22.030Z,30.70
2018-06-27T05:22:21.550Z,28.50
2018-06-27T05:23:21.106Z,28.10
2018-06-27T05:24:21.537Z,29.70
2018-06-27T05:25:22.232Z,27.90
2018-06-27T05:26:21.839Z,28.50
2018-06-27T05:27:21.254Z,27.90
2018-06-27T05:28:21.268Z,27.80
2018-06-27T05:29:22.091Z,28.90
2018-06-27T05:30:21.549Z,27.80
2018-06-27T05:31:22.096Z,27.10
2018-06-27T05:32:21.957Z,27.90
2018-06-27T05:33:21.803Z,27.30
2018-06-27T05:34:44.745Z,27.20
2018-06-27T05:35:45.164Z,25.90
2018-06-27T05:36:44.871Z,26.40
2018-06-27T05:37:45.474Z,25.60
2018-06-27T05:38:45.272Z,25.10
2018-06-27T05:39:44.898Z,25.00
2018-06-27T05:41:30.496Z,25.10
2018-06-27T05:42:31.246Z,24.70
2018-06-27T05:43:30.984Z,25.50
2018-06-27T05:44:55.203Z,24.10
2018-06-27T05:45:55.809Z,22.60
2018-06-27T05:46:55.262Z,22.50
2018-06-27T05:47:56.041Z,21.40
2018-06-27T05:48:56.096Z,22.90
2018-06-27T05:50:19.645Z,23.30
2018-06-27T05:51:20.632Z,22.60
2018-06-27T05:52:20.520Z,21.50
2018-06-27T05:53:41.307Z,20.10
2018-06-27T05:54:41.939Z,20.40
2018-06-27T05:55:41.423Z,20.50
2018-06-27T05:57:06.348Z,20.20
2018-06-27T05:58:07.285Z,19.90
2018-06-27T05:59:07.156Z,18.60
2018-06-27T06:00:07.113Z,18.70
2018-06-27T06:01:06.769Z,19.00
2018-06-27T06:02:53.978Z,18.10
2018-06-27T06:03:53.618Z,19.20
2018-06-27T06:04:54.162Z,18.10
2018-06-27T06:05:53.757Z,16.90
2018-06-27T06:06:53.562Z,17.40
2018-06-27T06:07:53.399Z,16.70
2018-06-27T06:08:53.890Z,15.50
2018-06-27T06:10:17.481Z,14.60
2018-06-27T06:11:18.484Z,15.20
2018-06-27T06:12:18.148Z,14.10
2018-06-27T06:13:18.006Z,14.90
2018-06-27T06:14:17.714Z,15.30
2018-06-27T06:15:17.680Z,15.10
2018-06-27T06:16:19.035Z,15.50
2018-06-27T06:17:18.102Z,16.20
2018-06-27T06:18:49.298Z,14.80
2018-06-27T06:19:44.475Z,15.00
2018-06-27T06:21:12.334Z,0.00
2018-06-27T06:22:10.863Z,14.60
2018-06-27T06:23:11.558Z,14.30
2018-06-27T06:24:11.083Z,13.90
2018-06-27T06:25:11.791Z,14.10
2018-06-27T06:26:54.105Z,13.10
2018-06-27T06:27:54.497Z,13.20
2018-06-27T06:28:55.032Z,14.00
2018-06-27T06:29:54.690Z,14.40
2018-06-27T06:30:54.406Z,13.60
2018-06-27T06:31:55.207Z,12.40
2018-06-27T06:32:55.012Z,13.60
2018-06-27T06:34:18.104Z,13.10
2018-06-27T06:35:18.767Z,12.90
2018-06-27T06:36:18.620Z,12.10
2018-06-27T06:37:18.224Z,11.80
2018-06-27T06:38:18.795Z,10.80
2018-06-27T06:39:18.383Z,11.50
2018-06-27T06:40:18.310Z,12.00
2018-06-27T06:41:18.234Z,10.90
2018-06-27T06:42:18.967Z,10.50
2018-06-27T06:43:18.770Z,10.00
2018-06-27T06:44:18.508Z,10.80
2018-06-27T06:45:18.332Z,10.40
2018-06-27T06:46:19.050Z,10.20
2018-06-27T06:47:18.939Z,10.00
2018-06-27T06:48:18.758Z,10.90
2018-06-27T06:49:18.361Z,10.40
2018-06-27T06:50:18.014Z,10.50
2018-06-27T06:51:18.529Z,10.30
2018-06-27T06:52:18.210Z,10.20
2018-06-27T06:53:19.193Z,10.20
2018-06-27T06:54:18.756Z,10.10
2018-06-27T06:55:18.149Z,9.60
2018-06-27T06:56:18.718Z,10.20
2018-06-27T06:57:18.621Z,11.80
2018-06-27T06:58:18.498Z,11.40
2018-06-27T06:59:18.301Z,10.80
2018-06-27T07:00:18.962Z,9.70
2018-06-27T07:01:18.783Z,11.90
2018-06-27T07:02:18.487Z,10.90
2018-06-27T07:03:41.937Z,10.50
2018-06-27T07:04:42.674Z,10.80
2018-06-27T07:05:42.339Z,10.70
2018-06-27T07:06:41.878Z,11.10
2018-06-27T07:07:42.535Z,11.10
2018-06-27T07:08:42.156Z,11.30
2018-06-27T07:09:41.736Z,11.30
2018-06-27T07:10:42.393Z,11.40
2018-06-27T07:11:42.202Z,10.10
2018-06-27T07:12:41.873Z,10.10
2018-06-27T07:13:42.691Z,10.10
2018-06-27T07:15:05.997Z,10.60
2018-06-27T07:16:06.551Z,9.70
2018-06-27T07:17:29.499Z,10.80
2018-06-27T07:18:30.249Z,10.60
2018-06-27T07:19:29.770Z,9.90
2018-06-27T07:20:30.727Z,11.10
2018-06-27T07:21:30.344Z,10.30
2018-06-27T07:22:54.703Z,11.00
2018-06-27T07:23:55.146Z,10.70
2018-06-27T07:24:54.817Z,11.20
2018-06-27T07:25:55.650Z,10.50
2018-06-27T07:26:55.273Z,11.60
2018-06-27T07:27:54.959Z,11.30
2018-06-27T07:28:54.744Z,10.70
2018-06-27T07:30:15.999Z,11.20
2018-06-27T07:31:38.278Z,11.10
2018-06-27T07:32:38.845Z,11.60
2018-06-27T07:33:38.635Z,11.50
2018-06-27T07:34:38.367Z,11.40
2018-06-27T07:35:39.353Z,11.50
2018-06-27T07:36:38.941Z,11.80
2018-06-27T07:37:38.637Z,11.20
2018-06-27T07:38:39.438Z,11.40
2018-06-27T07:39:39.724Z,11.60
2018-06-27T07:40:38.534Z,11.30
2018-06-27T07:41:39.034Z,10.60
2018-06-27T07:42:39.278Z,10.90
2018-06-27T07:43:39.225Z,11.10
2018-06-27T07:45:02.186Z,11.10
2018-06-27T07:46:02.874Z,11.70
2018-06-27T07:47:02.373Z,12.10
2018-06-27T07:48:02.929Z,11.30
2018-06-27T07:49:02.899Z,12.00
2018-06-27T07:50:02.311Z,11.50
2018-06-27T07:51:24.898Z,11.60
2018-06-27T07:52:25.541Z,11.70
2018-06-27T07:53:25.315Z,11.40
2018-06-27T07:54:25.336Z,12.10
2018-06-27T07:55:25.275Z,11.60
2018-06-27T07:56:48.684Z,10.70
2018-06-27T07:57:49.494Z,10.90
2018-06-27T07:58:49.201Z,11.50
2018-06-27T07:59:48.664Z,10.80
2018-06-27T08:00:49.551Z,11.30
2018-06-27T08:01:49.286Z,11.30
2018-06-27T08:02:49.268Z,10.00
2018-06-27T08:03:48.686Z,12.30
2018-06-27T08:04:49.167Z,11.60
2018-06-27T08:05:48.803Z,11.20
2018-06-27T08:06:49.370Z,10.80
2018-06-27T08:08:15.913Z,10.70
2018-06-27T08:09:15.851Z,11.60
2018-06-27T08:10:14.777Z,10.20
2018-06-27T08:11:14.695Z,11.00
2018-06-27T08:12:14.259Z,10.90
2018-06-27T08:13:14.966Z,11.00
2018-06-27T08:14:14.774Z,10.60
2018-06-27T08:15:14.669Z,10.50
2018-06-27T08:16:14.606Z,11.00
2018-06-27T08:17:14.155Z,10.70
2018-06-27T08:18:38.685Z,10.30
2018-06-27T08:19:39.523Z,10.70
2018-06-27T08:20:39.620Z,10.70
2018-06-27T08:21:39.474Z,11.60
2018-06-27T08:22:38.958Z,13.20
2018-06-27T08:23:38.985Z,12.20
2018-06-27T08:24:38.523Z,12.10
2018-06-27T08:26:06.614Z,13.50
2018-06-27T08:27:05.191Z,11.40
2018-06-27T08:28:04.825Z,13.10
2018-06-27T08:29:05.776Z,11.60
2018-06-27T08:30:04.718Z,0.00
2018-06-27T08:31:05.727Z,11.80
2018-06-27T08:32:05.561Z,11.80
2018-06-27T08:33:05.130Z,11.50
2018-06-27T08:34:05.262Z,10.70
2018-06-27T08:35:04.895Z,11.50
2018-06-27T08:36:05.376Z,11.40
2018-06-27T08:37:04.846Z,10.30
2018-06-27T08:38:04.766Z,10.30
2018-06-27T08:39:27.890Z,10.30
2018-06-27T08:40:28.883Z,10.30
2018-06-27T08:41:28.410Z,11.20
2018-06-27T08:42:28.058Z,10.60
2018-06-27T08:43:28.562Z,10.00
2018-06-27T08:44:28.319Z,10.40
2018-06-27T08:45:28.713Z,10.70
2018-06-27T08:46:28.266Z,9.30
2018-06-27T08:47:29.161Z,9.30
2018-06-27T08:48:29.143Z,9.50
2018-06-27T08:49:29.181Z,8.80
2018-06-27T08:50:28.810Z,8.80
2018-06-27T08:51:52.494Z,9.20
2018-06-27T08:52:54.131Z,8.50
2018-06-27T08:53:53.120Z,8.90
2018-06-27T08:54:52.612Z,8.90
2018-06-27T08:55:52.357Z,9.00
2018-06-27T08:56:52.850Z,9.30
2018-06-27T08:58:16.448Z,8.50
2018-06-27T08:59:16.935Z,8.80
2018-06-27T09:00:16.897Z,8.80
2018-06-27T09:01:16.732Z,8.70
2018-06-27T09:02:40.304Z,8.00
2018-06-27T09:03:39.924Z,8.50
2018-06-27T09:04:40.635Z,8.50
2018-06-27T09:05:40.534Z,8.80
2018-06-27T09:06:40.010Z,9.30
2018-06-27T09:07:41.036Z,9.20
2018-06-27T09:08:40.940Z,9.60
2018-06-27T09:09:40.892Z,9.50
2018-06-27T09:10:40.740Z,9.80
2018-06-27T09:11:40.423Z,9.90
2018-06-27T09:12:40.405Z,9.90
2018-06-27T09:13:40.348Z,9.40
2018-06-27T09:14:39.971Z,9.00
2018-06-27T09:15:41.630Z,8.70
2018-06-27T09:16:40.107Z,9.90
2018-06-27T09:17:41.029Z,9.30
2018-06-27T09:18:40.596Z,9.10
2018-06-27T09:19:40.109Z,9.50
2018-06-27T09:20:41.220Z,10.50
2018-06-27T09:21:40.751Z,10.50
2018-06-27T09:22:40.460Z,10.30
2018-06-27T09:24:04.360Z,10.90
2018-06-27T09:25:04.910Z,10.30
2018-06-27T09:26:04.904Z,10.40
2018-06-27T09:27:05.091Z,10.40
2018-06-27T09:28:28.158Z,10.20
2018-06-27T09:29:52.693Z,9.80
2018-06-27T09:31:16.297Z,10.50
2018-06-27T09:32:16.829Z,10.70
2018-06-27T09:34:04.201Z,11.60
2018-06-27T09:35:04.661Z,11.30
2018-06-27T09:36:04.742Z,10.80
2018-06-27T09:37:04.845Z,10.80
2018-06-27T09:38:04.436Z,11.30
2018-06-27T09:39:04.056Z,10.50
2018-06-27T09:40:03.798Z,10.80
2018-06-27T09:41:04.278Z,11.70
2018-06-27T09:42:04.278Z,11.00
2018-06-27T09:43:48.428Z,11.00
2018-06-27T09:45:13.328Z,12.00
2018-06-27T09:46:13.597Z,12.20
2018-06-27T09:47:13.522Z,11.80
2018-06-27T09:48:36.572Z,11.30
2018-06-27T09:49:37.316Z,10.90
2018-06-27T09:50:38.472Z,10.70
2018-06-27T09:51:37.035Z,11.60
2018-06-27T09:52:36.950Z,10.50
2018-06-27T09:53:37.361Z,10.40
2018-06-27T09:55:24.454Z,11.50
2018-06-27T09:56:24.514Z,10.90
2018-06-27T09:57:24.802Z,10.40
2018-06-27T09:58:47.830Z,11.70
2018-06-27T09:59:48.475Z,11.10
2018-06-27T10:00:48.088Z,10.90
2018-06-27T10:01:48.978Z,11.30
2018-06-27T10:02:48.538Z,10.90
2018-06-27T10:03:48.506Z,10.10
2018-06-27T10:04:48.424Z,11.40
2018-06-27T10:05:48.265Z,11.00
2018-06-27T10:06:47.856Z,10.80
2018-06-27T10:07:49.087Z,10.60
2018-06-27T10:08:47.712Z,9.60
2018-06-27T10:10:11.669Z,9.10
2018-06-27T10:11:12.294Z,9.40
2018-06-27T10:12:12.129Z,9.70
2018-06-27T10:13:12.953Z,9.20
2018-06-27T10:14:12.184Z,0.00
2018-06-27T10:15:11.881Z,9.60
2018-06-27T10:16:36.381Z,10.50
2018-06-27T10:17:37.422Z,9.00
2018-06-27T10:18:37.384Z,8.60
2018-06-27T10:19:37.318Z,9.20
2018-06-27T10:20:36.935Z,8.30
2018-06-27T10:21:36.914Z,8.00
2018-06-27T10:22:58.434Z,8.10
2018-06-27T10:23:58.934Z,8.40
2018-06-27T10:24:59.056Z,8.80
2018-06-27T10:25:59.316Z,8.70
2018-06-27T10:26:58.939Z,9.40
2018-06-27T10:27:58.600Z,8.60
2018-06-27T10:28:58.067Z,8.30
2018-06-27T10:29:59.044Z,7.30
2018-06-27T10:30:59.298Z,7.30
2018-06-27T10:31:58.863Z,7.60
2018-06-27T10:32:58.392Z,7.80
2018-06-27T10:33:58.369Z,9.10
2018-06-27T10:34:59.763Z,9.10
2018-06-27T10:35:58.268Z,9.30
2018-06-27T10:36:58.720Z,9.50
2018-06-27T10:37:58.183Z,8.70
2018-06-27T10:38:59.119Z,8.30
2018-06-27T10:39:59.144Z,7.30
2018-06-27T10:40:59.696Z,6.90
2018-06-27T10:41:58.774Z,5.20
2018-06-27T10:42:58.314Z,5.50
2018-06-27T10:43:59.237Z,6.40
2018-06-27T10:44:59.100Z,7.30
2018-06-27T10:45:58.730Z,6.00
2018-06-27T10:46:59.160Z,6.40
2018-06-27T10:47:59.003Z,5.90
2018-06-27T10:49:22.738Z,4.70
2018-06-27T10:50:22.391Z,5.10
2018-06-27T10:51:45.153Z,5.10
2018-06-27T10:52:45.772Z,3.80
2018-06-27T10:54:08.976Z,3.40
2018-06-27T10:55:09.389Z,3.40
2018-06-27T10:56:32.607Z,4.40
2018-06-27T10:57:33.276Z,4.30
2018-06-27T10:58:33.258Z,3.80
2018-06-27T10:59:32.816Z,3.50
2018-06-27T11:00:33.473Z,3.40
2018-06-27T11:01:33.490Z,4.20
2018-06-27T11:02:33.313Z,4.00
2018-06-27T11:03:32.641Z,3.80
2018-06-27T11:04:33.224Z,3.90
2018-06-27T11:05:32.876Z,3.90
2018-06-27T11:06:32.902Z,4.00
2018-06-27T11:07:33.751Z,4.10
2018-06-27T11:08:33.668Z,4.00
2018-06-27T11:09:57.244Z,4.20
2018-06-27T11:10:58.141Z,4.10
2018-06-27T11:12:21.319Z,3.70
2018-06-27T11:13:21.854Z,3.60
2018-06-27T11:14:21.343Z,4.10
2018-06-27T11:15:22.611Z,3.90
2018-06-27T11:16:22.615Z,3.50
2018-06-27T11:17:43.451Z,3.80
2018-06-27T11:18:45.000Z,4.10
2018-06-27T11:19:43.690Z,3.80
2018-06-27T11:20:45.236Z,3.80
2018-06-27T11:21:44.322Z,3.70
2018-06-27T11:22:43.818Z,4.10
2018-06-27T11:23:44.489Z,4.10
2018-06-27T11:25:07.582Z,4.40
2018-06-27T11:26:31.864Z,3.70
2018-06-27T11:27:56.409Z,4.20
2018-06-27T11:28:57.076Z,3.80
2018-06-27T11:29:57.003Z,3.90
2018-06-27T11:30:57.058Z,3.90
2018-06-27T11:31:56.832Z,3.60
2018-06-27T11:32:57.200Z,4.00
2018-06-27T11:33:57.037Z,3.30
2018-06-27T11:34:57.685Z,3.70
2018-06-27T11:35:56.326Z,3.70
2018-06-27T11:36:56.890Z,3.70
2018-06-27T11:37:56.641Z,4.20
2018-06-27T11:38:57.387Z,3.10
2018-06-27T11:39:57.068Z,3.60
2018-06-27T11:40:56.902Z,3.60
2018-06-27T11:42:18.129Z,3.40
2018-06-27T11:43:18.840Z,3.20
2018-06-27T11:44:18.581Z,3.80
2018-06-27T11:45:41.594Z,3.60
2018-06-27T11:47:05.953Z,3.20
2018-06-27T11:48:07.263Z,3.50
2018-06-27T11:49:06.755Z,3.80
2018-06-27T11:50:06.694Z,2.90
2018-06-27T11:51:06.342Z,3.00
2018-06-27T11:52:06.469Z,2.80
2018-06-27T11:53:06.294Z,3.30
2018-06-27T11:54:06.768Z,2.90
2018-06-27T11:55:06.551Z,2.80
2018-06-27T11:56:06.101Z,3.10
2018-06-27T11:57:06.856Z,3.10
2018-06-27T11:58:06.464Z,3.50
2018-06-27T11:59:06.010Z,3.40
2018-06-27T12:00:06.797Z,3.30
2018-06-27T12:01:06.623Z,3.20
2018-06-27T12:02:30.567Z,3.00
2018-06-27T12:03:31.217Z,3.00
2018-06-27T12:04:31.512Z,3.20
2018-06-27T12:05:31.394Z,2.90
2018-06-27T12:06:31.187Z,2.40
2018-06-27T12:07:30.826Z,2.30
2018-06-27T12:08:31.582Z,2.90
2018-06-27T12:09:31.506Z,2.20
2018-06-27T12:10:31.205Z,2.10
2018-06-27T12:11:31.150Z,2.20
2018-06-27T12:12:30.722Z,2.50
2018-06-27T12:13:31.176Z,2.60
2018-06-27T12:14:55.113Z,2.40
2018-06-27T12:16:18.750Z,2.60
2018-06-27T12:17:19.596Z,2.50
2018-06-27T12:18:19.324Z,3.10
2018-06-27T12:19:18.979Z,2.80
2018-06-27T12:20:42.727Z,4.50
2018-06-27T12:21:43.659Z,3.00
2018-06-27T12:22:43.461Z,3.00
2018-06-27T12:24:06.739Z,2.70
2018-06-27T12:25:07.710Z,2.60
2018-06-27T12:26:06.472Z,2.80
2018-06-27T12:27:08.130Z,2.40
2018-06-27T12:28:07.129Z,2.40
2018-06-27T12:29:06.737Z,2.30
2018-06-27T12:30:07.553Z,2.40
2018-06-27T12:31:07.067Z,2.90
2018-06-27T12:32:06.909Z,2.70
2018-06-27T12:33:06.525Z,2.60
2018-06-27T12:34:07.287Z,2.60
2018-06-27T12:35:07.196Z,2.60
2018-06-27T12:36:29.767Z,2.80
2018-06-27T12:37:30.195Z,2.60
2018-06-27T12:39:15.790Z,2.60
2018-06-27T12:40:16.264Z,2.30
2018-06-27T12:41:15.808Z,2.30
2018-06-27T12:42:16.285Z,2.20
2018-06-27T12:43:16.702Z,2.20
2018-06-27T12:44:17.444Z,1.90
2018-06-27T12:45:16.028Z,1.90
2018-06-27T12:46:16.701Z,2.30
2018-06-27T12:47:16.481Z,2.10
2018-06-27T12:48:38.786Z,2.40
2018-06-27T12:49:39.282Z,2.00
2018-06-27T12:50:39.731Z,2.20
2018-06-27T12:51:39.697Z,1.90
2018-06-27T12:52:39.806Z,1.80
2018-06-27T12:53:39.301Z,2.00
2018-06-27T12:54:38.991Z,2.30
2018-06-27T12:55:39.970Z,1.90
2018-06-27T12:56:39.777Z,1.70
2018-06-27T12:57:39.631Z,1.70
2018-06-27T12:58:39.277Z,1.90
2018-06-27T13:00:46.335Z,2.10
2018-06-27T13:01:46.006Z,2.20
2018-06-27T13:02:46.541Z,2.20
2018-06-27T13:03:46.340Z,1.90
2018-06-27T13:04:47.013Z,1.60
2018-06-27T13:06:31.382Z,2.10
2018-06-27T13:07:32.224Z,2.00
2018-06-27T13:08:32.138Z,3.00
2018-06-27T13:09:31.823Z,2.30
2018-06-27T13:10:32.393Z,2.30
2018-06-27T13:11:31.968Z,2.20
2018-06-27T13:12:31.597Z,2.10
2018-06-27T13:13:53.662Z,2.50
2018-06-27T13:14:54.793Z,2.10
2018-06-27T13:16:40.430Z,3.80
2018-06-27T13:17:40.296Z,2.10
2018-06-27T13:19:06.140Z,2.20
2018-06-27T13:20:05.645Z,2.00
2018-06-27T13:21:05.117Z,2.30
2018-06-27T13:22:04.722Z,2.30
2018-06-27T13:23:04.412Z,2.40
2018-06-27T13:24:05.123Z,1.90
2018-06-27T13:25:04.795Z,2.20
2018-06-27T13:26:26.491Z,2.30
2018-06-27T13:27:49.629Z,1.90
2018-06-27T13:28:49.595Z,1.70
2018-06-27T13:30:55.249Z,2.00
2018-06-27T13:31:56.198Z,2.10
2018-06-27T13:32:55.722Z,2.00
2018-06-27T13:34:43.175Z,2.00
2018-06-27T13:35:43.371Z,2.30
2018-06-27T13:36:43.261Z,2.40
2018-06-27T13:37:42.839Z,2.00
2018-06-27T13:38:43.729Z,2.00
2018-06-27T13:39:43.537Z,2.40
2018-06-27T13:40:43.532Z,1.90
2018-06-27T13:41:43.428Z,2.10
2018-06-27T13:42:43.028Z,2.40
2018-06-27T13:43:43.688Z,4.10
2018-06-27T13:44:44.761Z,2.90
2018-06-27T13:45:43.686Z,2.40
2018-06-27T13:46:43.608Z,2.50
2018-06-27T13:47:43.403Z,2.30
2018-06-27T13:49:06.383Z,2.30
2018-06-27T13:50:07.030Z,2.10